sensor_id;sensor_type;location;lat;lon;timestamp;pressure;altitude;pressure_sealevel;temperature;humidity
23166;BME280;11751;42.700;24.170;2024-03-08T00:00:17;93959.56;;;6.20;100.00
23166;BME280;11751;42.700;24.170;2024-03-08T00:02:46;93951.22;;;6.20;100.00
23166;BME280;11751;42.700;24.170;2024-03-08T00:05:12;93950.53;;;6.14;100.00
23166;BME280;11751;42.700;24.170;2024-03-08T00:07:39;93945.06;;;6.08;100.00
23166;BME280;11751;42.700;24.170;2024-03-08T00:10:05;93949.91;;;6.08;100.00
23166;BME280;11751;42.700;24.170;2024-03-08T00:12:31;93944.34;;;6.08;100.00
23166;BME280;11751;42.700;24.170;2024-03-08T00:14:57;93952.03;;;6.02;100.00
23166;BME280;11751;42.700;24.170;2024-03-08T00:17:22;93946.16;;;6.05;100.00
23166;BME280;11751;42.700;24.170;2024-03-08T00:19:49;93953.09;;;5.99;100.00
23166;BME280;11751;42.700;24.170;2024-03-08T00:22:15;93943.16;;;6.03;100.00
23166;BME280;11751;42.700;24.170;2024-03-08T00:24:41;93939.59;;;5.90;100.00
23166;BME280;11751;42.700;24.170;2024-03-08T00:27:06;93940.34;;;5.91;100.00
23166;BME280;11751;42.700;24.170;2024-03-08T00:29:32;93937.69;;;5.98;100.00
23166;BME280;11751;42.700;24.170;2024-03-08T00:31:57;93937.50;;;5.78;100.00
23166;BME280;11751;42.700;24.170;2024-03-08T00:34:23;93936.78;;;5.77;100.00
23166;BME280;11751;42.700;24.170;2024-03-08T00:36:48;93934.38;;;5.68;100.00
23166;BME280;11751;42.700;24.170;2024-03-08T00:39:14;93930.75;;;5.73;100.00
23166;BME280;11751;42.700;24.170;2024-03-08T00:41:39;93935.59;;;5.54;100.00
23166;BME280;11751;42.700;24.170;2024-03-08T00:44:05;93934.16;;;5.66;100.00
23166;BME280;11751;42.700;24.170;2024-03-08T00:46:30;93929.13;;;5.65;100.00
23166;BME280;11751;42.700;24.170;2024-03-08T00:48:56;93937.97;;;5.63;100.00
23166;BME280;11751;42.700;24.170;2024-03-08T00:51:22;93936.63;;;5.70;100.00
23166;BME280;11751;42.700;24.170;2024-03-08T00:53:47;93939.06;;;5.60;100.00
23166;BME280;11751;42.700;24.170;2024-03-08T00:56:13;93942.47;;;5.66;100.00
23166;BME280;11751;42.700;24.170;2024-03-08T00:58:38;93939.00;;;5.47;100.00
23166;BME280;11751;42.700;24.170;2024-03-08T01:01:04;93938.09;;;5.58;100.00
23166;BME280;11751;42.700;24.170;2024-03-08T01:03:31;93940.56;;;5.74;100.00
23166;BME280;11751;42.700;24.170;2024-03-08T01:06:00;93937.00;;;5.79;100.00
23166;BME280;11751;42.700;24.170;2024-03-08T01:08:28;93947.41;;;5.73;100.00
23166;BME280;11751;42.700;24.170;2024-03-08T01:10:53;93942.25;;;5.64;100.00
23166;BME280;11751;42.700;24.170;2024-03-08T01:13:19;93935.78;;;5.75;100.00
23166;BME280;11751;42.700;24.170;2024-03-08T01:15:45;93911.69;;;5.64;100.00
23166;BME280;11751;42.700;24.170;2024-03-08T01:18:11;93927.75;;;5.71;100.00
23166;BME280;11751;42.700;24.170;2024-03-08T01:20:37;93933.91;;;5.64;100.00
23166;BME280;11751;42.700;24.170;2024-03-08T01:23:02;93931.66;;;5.81;100.00
23166;BME280;11751;42.700;24.170;2024-03-08T01:25:28;93918.56;;;5.76;100.00
23166;BME280;11751;42.700;24.170;2024-03-08T01:27:54;93922.94;;;5.90;100.00
23166;BME280;11751;42.700;24.170;2024-03-08T01:30:19;93924.31;;;5.84;100.00
23166;BME280;11751;42.700;24.170;2024-03-08T01:32:45;93923.03;;;5.97;100.00
23166;BME280;11751;42.700;24.170;2024-03-08T01:35:10;93916.00;;;5.96;100.00
23166;BME280;11751;42.700;24.170;2024-03-08T01:37:36;93918.69;;;6.02;100.00
23166;BME280;11751;42.700;24.170;2024-03-08T01:40:02;93916.28;;;5.93;100.00
23166;BME280;11751;42.700;24.170;2024-03-08T01:42:28;93915.88;;;5.89;100.00
23166;BME280;11751;42.700;24.170;2024-03-08T01:44:54;93915.38;;;5.72;100.00
23166;BME280;11751;42.700;24.170;2024-03-08T01:47:21;93910.78;;;5.75;100.00
23166;BME280;11751;42.700;24.170;2024-03-08T01:49:49;93906.44;;;5.79;100.00
23166;BME280;11751;42.700;24.170;2024-03-08T01:52:16;93910.03;;;5.74;100.00
23166;BME280;11751;42.700;24.170;2024-03-08T01:54:42;93914.56;;;5.77;100.00
23166;BME280;11751;42.700;24.170;2024-03-08T01:57:07;93900.88;;;5.79;100.00
23166;BME280;11751;42.700;24.170;2024-03-08T01:59:33;93904.03;;;5.70;100.00
23166;BME280;11751;42.700;24.170;2024-03-08T02:02:02;93905.94;;;5.62;100.00
23166;BME280;11751;42.700;24.170;2024-03-08T02:04:29;93900.34;;;5.49;100.00
23166;BME280;11751;42.700;24.170;2024-03-08T02:06:56;93901.84;;;5.50;100.00
23166;BME280;11751;42.700;24.170;2024-03-08T02:09:23;93905.91;;;5.49;100.00
23166;BME280;11751;42.700;24.170;2024-03-08T02:11:50;93887.25;;;5.31;100.00
23166;BME280;11751;42.700;24.170;2024-03-08T02:14:17;93902.50;;;5.25;100.00
23166;BME280;11751;42.700;24.170;2024-03-08T02:16:44;93900.75;;;5.22;100.00
23166;BME280;11751;42.700;24.170;2024-03-08T02:19:09;93898.28;;;5.18;100.00
23166;BME280;11751;42.700;24.170;2024-03-08T02:21:35;93903.03;;;5.23;100.00
23166;BME280;11751;42.700;24.170;2024-03-08T02:24:01;93903.69;;;5.29;100.00
23166;BME280;11751;42.700;24.170;2024-03-08T02:26:27;93899.50;;;5.23;100.00
23166;BME280;11751;42.700;24.170;2024-03-08T02:28:52;93904.13;;;5.33;100.00
23166;BME280;11751;42.700;24.170;2024-03-08T02:31:18;93899.78;;;5.38;100.00
23166;BME280;11751;42.700;24.170;2024-03-08T02:33:43;93900.38;;;5.31;100.00
23166;BME280;11751;42.700;24.170;2024-03-08T02:36:09;93903.69;;;5.29;100.00
23166;BME280;11751;42.700;24.170;2024-03-08T02:38:35;93906.22;;;5.27;100.00
23166;BME280;11751;42.700;24.170;2024-03-08T02:41:00;93910.13;;;5.19;100.00
23166;BME280;11751;42.700;24.170;2024-03-08T02:43:25;93910.44;;;5.15;100.00
23166;BME280;11751;42.700;24.170;2024-03-08T02:45:51;93904.88;;;5.15;100.00
23166;BME280;11751;42.700;24.170;2024-03-08T02:48:18;93908.34;;;5.21;100.00
23166;BME280;11751;42.700;24.170;2024-03-08T02:50:44;93903.94;;;5.13;100.00
23166;BME280;11751;42.700;24.170;2024-03-08T02:53:10;93910.09;;;5.06;100.00
23166;BME280;11751;42.700;24.170;2024-03-08T02:55:39;93910.03;;;4.75;100.00
23166;BME280;11751;42.700;24.170;2024-03-08T02:58:06;93919.63;;;4.74;100.00
23166;BME280;11751;42.700;24.170;2024-03-08T03:00:35;93919.31;;;4.77;100.00
23166;BME280;11751;42.700;24.170;2024-03-08T03:03:01;93913.91;;;4.85;100.00
23166;BME280;11751;42.700;24.170;2024-03-08T03:05:28;93918.78;;;4.79;100.00
23166;BME280;11751;42.700;24.170;2024-03-08T03:07:55;93923.78;;;4.62;100.00
23166;BME280;11751;42.700;24.170;2024-03-08T03:10:21;93929.03;;;4.65;100.00
23166;BME280;11751;42.700;24.170;2024-03-08T03:12:48;93932.53;;;4.66;100.00
23166;BME280;11751;42.700;24.170;2024-03-08T03:15:14;93922.91;;;4.72;100.00
23166;BME280;11751;42.700;24.170;2024-03-08T03:17:48;93931.81;;;4.65;100.00
23166;BME280;11751;42.700;24.170;2024-03-08T03:20:14;93939.41;;;4.65;100.00
23166;BME280;11751;42.700;24.170;2024-03-08T03:22:42;93938.31;;;4.68;100.00
23166;BME280;11751;42.700;24.170;2024-03-08T03:25:12;93937.81;;;4.69;100.00
23166;BME280;11751;42.700;24.170;2024-03-08T03:27:37;93947.91;;;4.67;100.00
23166;BME280;11751;42.700;24.170;2024-03-08T03:30:04;93950.19;;;4.68;100.00
23166;BME280;11751;42.700;24.170;2024-03-08T03:32:51;93944.94;;;4.65;100.00
23166;BME280;11751;42.700;24.170;2024-03-08T03:35:18;93946.47;;;4.60;100.00
23166;BME280;11751;42.700;24.170;2024-03-08T03:37:44;93941.47;;;4.59;100.00
23166;BME280;11751;42.700;24.170;2024-03-08T03:40:27;93949.25;;;4.60;100.00
23166;BME280;11751;42.700;24.170;2024-03-08T03:42:53;93944.31;;;4.53;100.00
23166;BME280;11751;42.700;24.170;2024-03-08T03:45:19;93945.28;;;4.56;100.00
23166;BME280;11751;42.700;24.170;2024-03-08T03:47:45;93941.16;;;4.62;100.00
23166;BME280;11751;42.700;24.170;2024-03-08T03:50:11;93945.69;;;4.65;100.00
23166;BME280;11751;42.700;24.170;2024-03-08T03:52:36;93944.72;;;4.63;100.00
23166;BME280;11751;42.700;24.170;2024-03-08T03:55:02;93944.00;;;4.57;100.00
23166;BME280;11751;42.700;24.170;2024-03-08T03:57:30;93938.03;;;4.53;100.00
23166;BME280;11751;42.700;24.170;2024-03-08T03:59:55;93945.47;;;4.39;100.00
23166;BME280;11751;42.700;24.170;2024-03-08T04:02:20;93952.19;;;4.25;100.00
23166;BME280;11751;42.700;24.170;2024-03-08T04:04:47;93946.22;;;4.16;100.00
23166;BME280;11751;42.700;24.170;2024-03-08T04:07:13;93952.47;;;4.22;100.00
23166;BME280;11751;42.700;24.170;2024-03-08T04:09:38;93939.00;;;4.31;100.00
23166;BME280;11751;42.700;24.170;2024-03-08T04:12:04;93950.03;;;4.37;100.00
23166;BME280;11751;42.700;24.170;2024-03-08T04:14:30;93949.88;;;4.29;100.00
23166;BME280;11751;42.700;24.170;2024-03-08T04:16:55;93953.16;;;4.28;100.00
23166;BME280;11751;42.700;24.170;2024-03-08T04:19:21;93956.16;;;4.30;100.00
23166;BME280;11751;42.700;24.170;2024-03-08T04:21:47;93956.84;;;4.36;100.00
23166;BME280;11751;42.700;24.170;2024-03-08T04:24:12;93957.56;;;4.42;100.00
23166;BME280;11751;42.700;24.170;2024-03-08T04:26:38;93957.19;;;4.51;100.00
23166;BME280;11751;42.700;24.170;2024-03-08T04:29:03;93971.28;;;4.53;100.00
23166;BME280;11751;42.700;24.170;2024-03-08T04:31:29;93960.19;;;4.53;100.00
23166;BME280;11751;42.700;24.170;2024-03-08T04:33:56;93967.00;;;4.52;100.00
23166;BME280;11751;42.700;24.170;2024-03-08T04:36:22;93973.22;;;4.58;100.00
23166;BME280;11751;42.700;24.170;2024-03-08T04:38:47;93982.03;;;4.62;100.00
23166;BME280;11751;42.700;24.170;2024-03-08T04:41:12;93973.09;;;4.69;100.00
23166;BME280;11751;42.700;24.170;2024-03-08T04:43:39;93976.91;;;4.66;100.00
23166;BME280;11751;42.700;24.170;2024-03-08T04:46:05;93972.88;;;4.67;100.00
23166;BME280;11751;42.700;24.170;2024-03-08T04:48:30;93976.66;;;4.69;100.00
23166;BME280;11751;42.700;24.170;2024-03-08T04:50:56;93986.31;;;4.63;100.00
23166;BME280;11751;42.700;24.170;2024-03-08T04:53:21;93989.88;;;4.58;100.00
23166;BME280;11751;42.700;24.170;2024-03-08T04:55:47;93986.44;;;4.70;100.00
23166;BME280;11751;42.700;24.170;2024-03-08T04:58:12;93987.69;;;4.75;100.00
23166;BME280;11751;42.700;24.170;2024-03-08T05:00:38;93989.63;;;4.80;100.00
23166;BME280;11751;42.700;24.170;2024-03-08T05:03:03;93988.59;;;4.83;100.00
23166;BME280;11751;42.700;24.170;2024-03-08T05:05:30;94001.63;;;4.88;100.00
23166;BME280;11751;42.700;24.170;2024-03-08T05:07:56;93995.03;;;4.91;100.00
23166;BME280;11751;42.700;24.170;2024-03-08T05:10:21;93999.09;;;4.90;100.00
23166;BME280;11751;42.700;24.170;2024-03-08T05:12:47;94006.25;;;5.04;100.00
23166;BME280;11751;42.700;24.170;2024-03-08T05:15:12;93999.69;;;4.83;100.00
23166;BME280;11751;42.700;24.170;2024-03-08T05:17:38;94007.41;;;4.90;100.00
23166;BME280;11751;42.700;24.170;2024-03-08T05:20:06;94018.13;;;4.99;100.00
23166;BME280;11751;42.700;24.170;2024-03-08T05:22:33;94020.53;;;5.07;100.00
23166;BME280;11751;42.700;24.170;2024-03-08T05:24:59;94006.13;;;4.91;100.00
23166;BME280;11751;42.700;24.170;2024-03-08T05:27:24;94018.13;;;4.99;100.00
23166;BME280;11751;42.700;24.170;2024-03-08T05:29:49;94014.16;;;4.94;100.00
23166;BME280;11751;42.700;24.170;2024-03-08T05:32:15;94013.06;;;5.03;100.00
23166;BME280;11751;42.700;24.170;2024-03-08T05:34:40;94018.81;;;5.04;100.00
23166;BME280;11751;42.700;24.170;2024-03-08T05:37:06;94024.72;;;4.96;100.00
23166;BME280;11751;42.700;24.170;2024-03-08T05:39:32;94028.19;;;5.02;100.00
23166;BME280;11751;42.700;24.170;2024-03-08T05:41:58;94024.16;;;5.03;100.00
23166;BME280;11751;42.700;24.170;2024-03-08T05:44:23;94020.78;;;5.09;100.00
23166;BME280;11751;42.700;24.170;2024-03-08T05:46:48;94018.13;;;4.99;100.00
23166;BME280;11751;42.700;24.170;2024-03-08T05:49:14;94033.97;;;5.04;100.00
23166;BME280;11751;42.700;24.170;2024-03-08T05:51:40;94026.22;;;4.97;100.00
23166;BME280;11751;42.700;24.170;2024-03-08T05:54:10;94021.16;;;5.01;100.00
23166;BME280;11751;42.700;24.170;2024-03-08T05:56:37;94033.41;;;4.87;100.00
23166;BME280;11751;42.700;24.170;2024-03-08T05:59:03;94026.22;;;4.97;100.00
23166;BME280;11751;42.700;24.170;2024-03-08T06:01:29;94033.28;;;4.98;100.00
23166;BME280;11751;42.700;24.170;2024-03-08T06:03:55;94035.78;;;5.19;100.00
23166;BME280;11751;42.700;24.170;2024-03-08T06:06:25;94040.69;;;5.32;100.00
23166;BME280;11751;42.700;24.170;2024-03-08T06:08:51;94036.78;;;5.40;100.00
23166;BME280;11751;42.700;24.170;2024-03-08T06:11:18;94034.16;;;5.48;100.00
23166;BME280;11751;42.700;24.170;2024-03-08T06:13:45;94036.63;;;5.51;100.00
23166;BME280;11751;42.700;24.170;2024-03-08T06:16:10;94042.19;;;5.51;100.00
23166;BME280;11751;42.700;24.170;2024-03-08T06:18:37;94043.69;;;5.52;100.00
23166;BME280;11751;42.700;24.170;2024-03-08T06:21:03;94050.28;;;5.68;100.00
23166;BME280;11751;42.700;24.170;2024-03-08T06:23:33;94051.50;;;5.72;100.00
23166;BME280;11751;42.700;24.170;2024-03-08T06:25:59;94056.97;;;5.78;100.00
23166;BME280;11751;42.700;24.170;2024-03-08T06:28:24;94065.03;;;5.81;100.00
23166;BME280;11751;42.700;24.170;2024-03-08T06:30:50;94059.31;;;5.92;100.00
23166;BME280;11751;42.700;24.170;2024-03-08T06:33:19;94065.44;;;6.03;100.00
23166;BME280;11751;42.700;24.170;2024-03-08T06:35:45;94063.63;;;6.06;100.00
23166;BME280;11751;42.700;24.170;2024-03-08T06:38:10;94054.47;;;6.11;100.00
23166;BME280;11751;42.700;24.170;2024-03-08T06:40:36;94065.69;;;6.18;100.00
23166;BME280;11751;42.700;24.170;2024-03-08T06:43:02;94057.59;;;6.20;100.00
23166;BME280;11751;42.700;24.170;2024-03-08T06:45:31;94062.41;;;6.20;100.00
23166;BME280;11751;42.700;24.170;2024-03-08T06:47:56;94070.53;;;6.18;100.00
23166;BME280;11751;42.700;24.170;2024-03-08T06:50:22;94066.19;;;6.35;100.00
23166;BME280;11751;42.700;24.170;2024-03-08T06:52:47;94065.03;;;6.44;100.00
23166;BME280;11751;42.700;24.170;2024-03-08T06:55:33;94070.84;;;6.59;100.00
23166;BME280;11751;42.700;24.170;2024-03-08T06:57:58;94076.00;;;6.68;100.00
23166;BME280;11751;42.700;24.170;2024-03-08T07:00:23;94074.53;;;6.92;100.00
23166;BME280;11751;42.700;24.170;2024-03-08T07:02:52;94064.69;;;7.04;100.00
23166;BME280;11751;42.700;24.170;2024-03-08T07:05:19;94074.66;;;7.13;100.00
23166;BME280;11751;42.700;24.170;2024-03-08T07:07:44;94060.84;;;7.07;99.31
23166;BME280;11751;42.700;24.170;2024-03-08T07:10:10;94069.50;;;7.17;99.13
23166;BME280;11751;42.700;24.170;2024-03-08T07:12:43;94068.13;;;7.23;98.51
23166;BME280;11751;42.700;24.170;2024-03-08T07:15:08;94063.63;;;7.46;96.64
23166;BME280;11751;42.700;24.170;2024-03-08T07:17:39;94074.97;;;7.35;95.19
23166;BME280;11751;42.700;24.170;2024-03-08T07:20:05;94072.38;;;7.50;95.02
23166;BME280;11751;42.700;24.170;2024-03-08T07:22:32;94077.66;;;7.41;94.34
23166;BME280;11751;42.700;24.170;2024-03-08T07:24:58;94069.38;;;7.61;95.38
23166;BME280;11751;42.700;24.170;2024-03-08T07:27:35;94075.53;;;7.80;89.17
23166;BME280;11751;42.700;24.170;2024-03-08T07:30:05;94072.72;;;7.93;89.81
23166;BME280;11751;42.700;24.170;2024-03-08T07:32:31;94069.47;;;8.02;90.30
23166;BME280;11751;42.700;24.170;2024-03-08T07:34:57;94050.34;;;8.19;87.45
23166;BME280;11751;42.700;24.170;2024-03-08T07:37:22;94058.41;;;8.43;87.01
23166;BME280;11751;42.700;24.170;2024-03-08T07:39:48;94068.41;;;8.58;88.45
23166;BME280;11751;42.700;24.170;2024-03-08T07:42:14;94071.41;;;8.60;86.90
23166;BME280;11751;42.700;24.170;2024-03-08T07:44:39;94064.84;;;8.99;85.17
23166;BME280;11751;42.700;24.170;2024-03-08T07:47:05;94056.81;;;8.95;84.22
23166;BME280;11751;42.700;24.170;2024-03-08T07:49:34;94056.88;;;8.82;83.52
23166;BME280;11751;42.700;24.170;2024-03-08T07:51:59;94068.75;;;8.75;84.40
23166;BME280;11751;42.700;24.170;2024-03-08T07:54:25;94068.78;;;8.83;82.93
23166;BME280;11751;42.700;24.170;2024-03-08T07:56:51;94068.56;;;9.01;82.84
23166;BME280;11751;42.700;24.170;2024-03-08T07:59:18;94069.66;;;8.98;83.06
23166;BME280;11751;42.700;24.170;2024-03-08T08:01:43;94067.44;;;8.76;80.90
23166;BME280;11751;42.700;24.170;2024-03-08T08:04:10;94067.34;;;8.89;79.93
23166;BME280;11751;42.700;24.170;2024-03-08T08:06:38;94076.75;;;8.99;78.88
23166;BME280;11751;42.700;24.170;2024-03-08T08:09:06;94076.88;;;9.14;79.07
23166;BME280;11751;42.700;24.170;2024-03-08T08:11:39;94084.00;;;8.74;74.82
23166;BME280;11751;42.700;24.170;2024-03-08T08:14:06;94074.66;;;8.51;75.58
23166;BME280;11751;42.700;24.170;2024-03-08T08:16:35;94071.53;;;8.35;73.94
23166;BME280;11751;42.700;24.170;2024-03-08T08:19:02;94076.00;;;8.78;77.30
23166;BME280;11751;42.700;24.170;2024-03-08T08:21:35;94084.09;;;8.89;76.48
23166;BME280;11751;42.700;24.170;2024-03-08T08:24:03;94071.09;;;8.92;78.18
23166;BME280;11751;42.700;24.170;2024-03-08T08:26:28;94069.31;;;9.02;76.94
23166;BME280;11751;42.700;24.170;2024-03-08T08:28:54;94066.50;;;9.22;76.73
23166;BME280;11751;42.700;24.170;2024-03-08T08:31:19;94066.78;;;9.39;76.19
23166;BME280;11751;42.700;24.170;2024-03-08T08:33:45;94062.13;;;9.41;75.99
23166;BME280;11751;42.700;24.170;2024-03-08T08:36:10;94066.25;;;9.48;74.88
23166;BME280;11751;42.700;24.170;2024-03-08T08:38:36;94056.31;;;9.32;75.09
23166;BME280;11751;42.700;24.170;2024-03-08T08:41:01;94070.25;;;9.60;75.19
23166;BME280;11751;42.700;24.170;2024-03-08T08:43:27;94069.94;;;9.71;74.31
23166;BME280;11751;42.700;24.170;2024-03-08T08:45:53;94076.41;;;9.66;73.02
23166;BME280;11751;42.700;24.170;2024-03-08T08:48:20;94071.06;;;9.40;69.88
23166;BME280;11751;42.700;24.170;2024-03-08T08:50:45;94065.13;;;9.43;72.24
23166;BME280;11751;42.700;24.170;2024-03-08T08:53:12;94066.34;;;9.63;73.77
23166;BME280;11751;42.700;24.170;2024-03-08T08:55:40;94062.59;;;9.60;75.89
23166;BME280;11751;42.700;24.170;2024-03-08T08:58:05;94066.50;;;9.57;70.50
23166;BME280;11751;42.700;24.170;2024-03-08T09:00:32;94068.03;;;10.01;71.77
23166;BME280;11751;42.700;24.170;2024-03-08T09:03:00;94062.03;;;9.97;69.83
23166;BME280;11751;42.700;24.170;2024-03-08T09:05:25;94064.78;;;9.90;68.69
23166;BME280;11751;42.700;24.170;2024-03-08T09:07:51;94056.84;;;10.01;70.77
23166;BME280;11751;42.700;24.170;2024-03-08T09:10:18;94053.09;;;9.99;70.72
23166;BME280;11751;42.700;24.170;2024-03-08T09:12:44;94045.84;;;10.03;70.35
23166;BME280;11751;42.700;24.170;2024-03-08T09:15:09;94047.19;;;10.24;74.58
23166;BME280;11751;42.700;24.170;2024-03-08T09:17:38;94053.72;;;10.20;74.05
23166;BME280;11751;42.700;24.170;2024-03-08T09:20:09;94057.34;;;10.42;73.30
23166;BME280;11751;42.700;24.170;2024-03-08T09:22:35;94045.75;;;10.53;72.95
23166;BME280;11751;42.700;24.170;2024-03-08T09:25:01;94056.41;;;10.55;73.26
23166;BME280;11751;42.700;24.170;2024-03-08T09:27:27;94035.84;;;10.37;71.01
23166;BME280;11751;42.700;24.170;2024-03-08T09:29:54;94060.34;;;10.74;71.77
23166;BME280;11751;42.700;24.170;2024-03-08T09:32:20;94057.56;;;10.67;70.67
23166;BME280;11751;42.700;24.170;2024-03-08T09:34:45;94065.22;;;10.81;71.40
23166;BME280;11751;42.700;24.170;2024-03-08T09:37:10;94065.75;;;10.57;71.29
23166;BME280;11751;42.700;24.170;2024-03-08T09:39:37;94069.13;;;10.56;69.88
23166;BME280;11751;42.700;24.170;2024-03-08T09:42:06;94075.13;;;10.75;67.88
23166;BME280;11751;42.700;24.170;2024-03-08T09:44:32;94077.53;;;10.78;68.14
23166;BME280;11751;42.700;24.170;2024-03-08T09:47:00;94082.34;;;10.55;66.38
23166;BME280;11751;42.700;24.170;2024-03-08T09:49:27;94074.84;;;10.35;69.21
23166;BME280;11751;42.700;24.170;2024-03-08T09:51:54;94074.47;;;10.31;68.71
23166;BME280;11751;42.700;24.170;2024-03-08T09:54:21;94079.34;;;10.38;69.06
23166;BME280;11751;42.700;24.170;2024-03-08T09:56:48;94072.25;;;10.37;66.85
23166;BME280;11751;42.700;24.170;2024-03-08T09:59:18;94081.16;;;10.21;68.17
23166;BME280;11751;42.700;24.170;2024-03-08T10:01:52;94075.59;;;10.43;69.28
23166;BME280;11751;42.700;24.170;2024-03-08T10:04:18;94074.47;;;10.39;67.81
23166;BME280;11751;42.700;24.170;2024-03-08T10:06:46;94069.47;;;10.60;67.35
23166;BME280;11751;42.700;24.170;2024-03-08T10:09:14;94069.34;;;11.03;69.13
23166;BME280;11751;42.700;24.170;2024-03-08T10:11:41;94073.81;;;10.98;68.88
23166;BME280;11751;42.700;24.170;2024-03-08T10:14:09;94073.06;;;11.20;66.39
23166;BME280;11751;42.700;24.170;2024-03-08T10:16:35;94065.97;;;11.19;68.66
23166;BME280;11751;42.700;24.170;2024-03-08T10:19:01;94079.22;;;11.26;66.55
23166;BME280;11751;42.700;24.170;2024-03-08T10:21:28;94071.19;;;11.15;68.48
23166;BME280;11751;42.700;24.170;2024-03-08T10:23:55;94073.78;;;11.13;66.67
23166;BME280;11751;42.700;24.170;2024-03-08T10:26:21;94067.06;;;11.16;66.90
23166;BME280;11751;42.700;24.170;2024-03-08T10:28:51;94065.00;;;11.24;69.06
23166;BME280;11751;42.700;24.170;2024-03-08T10:31:18;94065.94;;;11.34;65.24
23166;BME280;11751;42.700;24.170;2024-03-08T10:33:45;94060.69;;;11.53;65.69
23166;BME280;11751;42.700;24.170;2024-03-08T10:36:12;94066.84;;;11.44;63.79
23166;BME280;11751;42.700;24.170;2024-03-08T10:38:39;94061.81;;;11.35;67.20
23166;BME280;11751;42.700;24.170;2024-03-08T10:41:06;94053.59;;;11.29;66.54
23166;BME280;11751;42.700;24.170;2024-03-08T10:46:29;94059.22;;;11.37;64.23
23166;BME280;11751;42.700;24.170;2024-03-08T10:48:57;94055.09;;;11.23;64.48
23166;BME280;11751;42.700;24.170;2024-03-08T10:51:28;94060.91;;;11.32;64.20
23166;BME280;11751;42.700;24.170;2024-03-08T10:53:58;94057.16;;;11.30;66.15
23166;BME280;11751;42.700;24.170;2024-03-08T10:56:24;94052.06;;;11.51;67.72
23166;BME280;11751;42.700;24.170;2024-03-08T10:58:53;94045.75;;;11.58;67.48
23166;BME280;11751;42.700;24.170;2024-03-08T11:01:19;94058.06;;;11.70;67.43
23166;BME280;11751;42.700;24.170;2024-03-08T11:03:46;94048.09;;;11.84;67.25
23166;BME280;11751;42.700;24.170;2024-03-08T11:09:08;94038.56;;;11.72;66.71
23166;BME280;11751;42.700;24.170;2024-03-08T11:11:38;94043.44;;;11.79;67.77
23166;BME280;11751;42.700;24.170;2024-03-08T11:14:42;94037.06;;;11.78;66.62
23166;BME280;11751;42.700;24.170;2024-03-08T11:17:07;94033.34;;;11.68;67.39
23166;BME280;11751;42.700;24.170;2024-03-08T11:19:33;94036.75;;;11.59;67.78
23166;BME280;11751;42.700;24.170;2024-03-08T11:22:03;94033.38;;;11.61;65.05
23166;BME280;11751;42.700;24.170;2024-03-08T11:24:37;94029.56;;;11.81;66.80
23166;BME280;11751;42.700;24.170;2024-03-08T11:27:05;94021.69;;;11.87;67.36
23166;BME280;11751;42.700;24.170;2024-03-08T11:29:35;94035.03;;;11.71;67.30
23166;BME280;11751;42.700;24.170;2024-03-08T11:32:11;94034.03;;;11.91;69.05
23166;BME280;11751;42.700;24.170;2024-03-08T11:34:40;94028.03;;;11.94;68.09
23166;BME280;11751;42.700;24.170;2024-03-08T11:37:12;94020.41;;;12.19;68.01
23166;BME280;11751;42.700;24.170;2024-03-08T11:39:39;94022.63;;;12.28;66.39
23166;BME280;11751;42.700;24.170;2024-03-08T11:42:05;94019.97;;;12.30;64.72
23166;BME280;11751;42.700;24.170;2024-03-08T11:44:32;94019.13;;;12.45;65.06
23166;BME280;11751;42.700;24.170;2024-03-08T11:46:57;94010.81;;;12.62;64.89
23166;BME280;11751;42.700;24.170;2024-03-08T11:49:23;94018.66;;;12.63;65.47
23166;BME280;11751;42.700;24.170;2024-03-08T11:51:51;94008.50;;;12.68;64.04
23166;BME280;11751;42.700;24.170;2024-03-08T11:54:17;94013.19;;;12.41;60.93
23166;BME280;11751;42.700;24.170;2024-03-08T11:56:44;94012.34;;;12.23;63.25
23166;BME280;11751;42.700;24.170;2024-03-08T11:59:12;94014.72;;;12.34;62.48
23166;BME280;11751;42.700;24.170;2024-03-08T12:01:38;94011.16;;;12.34;65.02
23166;BME280;11751;42.700;24.170;2024-03-08T12:04:04;94001.63;;;12.29;67.12
23166;BME280;11751;42.700;24.170;2024-03-08T12:06:40;94012.44;;;12.40;65.88
23166;BME280;11751;42.700;24.170;2024-03-08T12:09:10;94006.13;;;12.32;67.31
23166;BME280;11751;42.700;24.170;2024-03-08T12:11:36;94004.94;;;12.43;67.44
23166;BME280;11751;42.700;24.170;2024-03-08T12:14:02;94006.97;;;12.10;65.74
23166;BME280;11751;42.700;24.170;2024-03-08T12:16:28;94009.94;;;11.81;65.71
23166;BME280;11751;42.700;24.170;2024-03-08T12:18:54;94004.63;;;11.38;65.53
23166;BME280;11751;42.700;24.170;2024-03-08T12:21:20;94012.03;;;11.65;66.13
23166;BME280;11751;42.700;24.170;2024-03-08T12:23:47;94008.19;;;11.31;67.90
23166;BME280;11751;42.700;24.170;2024-03-08T12:26:25;94007.88;;;11.05;67.92
23166;BME280;11751;42.700;24.170;2024-03-08T12:28:51;94002.09;;;10.80;68.85
23166;BME280;11751;42.700;24.170;2024-03-08T12:31:17;93990.53;;;10.91;69.19
23166;BME280;11751;42.700;24.170;2024-03-08T12:33:51;93999.13;;;10.78;68.99
23166;BME280;11751;42.700;24.170;2024-03-08T12:36:18;93995.38;;;10.83;69.97
23166;BME280;11751;42.700;24.170;2024-03-08T12:38:48;93992.41;;;10.66;69.35
23166;BME280;11751;42.700;24.170;2024-03-08T12:41:20;93990.34;;;10.59;68.77
23166;BME280;11751;42.700;24.170;2024-03-08T12:43:46;93991.28;;;10.39;69.98
23166;BME280;11751;42.700;24.170;2024-03-08T12:46:14;93986.78;;;10.36;68.92
23166;BME280;11751;42.700;24.170;2024-03-08T12:48:40;93990.88;;;10.35;70.98
23166;BME280;11751;42.700;24.170;2024-03-08T12:51:08;93987.53;;;10.44;71.79
23166;BME280;11751;42.700;24.170;2024-03-08T12:53:35;93994.81;;;10.47;71.84
23166;BME280;11751;42.700;24.170;2024-03-08T12:56:00;93993.88;;;10.52;71.07